createdAt,value
2023-05-12T00:01:41.057Z,6.88
2023-05-12T00:04:43.569Z,6.38
2023-05-12T00:07:45.589Z,6.35
2023-05-12T00:10:47.663Z,9.00
2023-05-12T00:16:56.714Z,5.82
2023-05-12T00:19:59.117Z,5.35
2023-05-12T00:23:02.158Z,6.35
2023-05-12T00:26:04.154Z,6.85
2023-05-12T00:29:08.749Z,4.72
2023-05-12T00:32:10.876Z,7.63
2023-05-12T00:35:13.002Z,7.05
2023-05-12T00:38:15.599Z,5.75
2023-05-12T00:41:17.721Z,6.25
2023-05-12T00:44:20.383Z,9.07
2023-05-12T00:47:22.755Z,7.97
2023-05-12T00:50:25.408Z,8.07
2023-05-12T00:53:41.107Z,6.63
2023-05-12T00:56:50.269Z,9.20
2023-05-12T00:59:53.141Z,16.77
2023-05-12T01:02:58.299Z,9.85
2023-05-12T01:06:12.395Z,4.30
2023-05-12T01:09:16.653Z,7.55
2023-05-12T01:12:20.173Z,5.40
2023-05-12T01:18:26.843Z,6.60
2023-05-12T01:21:28.862Z,5.53
2023-05-12T01:24:36.644Z,7.28
2023-05-12T01:27:40.926Z,7.32
2023-05-12T01:30:44.525Z,5.18
2023-05-12T01:33:48.478Z,7.18
2023-05-12T01:36:51.404Z,6.28
2023-05-12T01:39:54.674Z,5.18
2023-05-12T01:42:57.031Z,6.97
2023-05-12T01:46:00.449Z,8.35
2023-05-12T01:49:04.011Z,7.53
2023-05-12T01:52:06.177Z,12.10
2023-05-12T01:55:08.409Z,7.82
2023-05-12T01:58:18.175Z,10.40
2023-05-12T02:01:20.326Z,8.63
2023-05-12T02:07:25.446Z,5.97
2023-05-12T02:13:36.718Z,6.45
2023-05-12T02:16:38.859Z,5.75
2023-05-12T02:19:41.488Z,8.05
2023-05-12T02:22:47.619Z,7.97
2023-05-12T02:25:49.745Z,8.93
2023-05-12T02:28:51.827Z,6.53
2023-05-12T02:31:56.886Z,6.57
2023-05-12T02:34:59.161Z,12.80
2023-05-12T02:38:01.695Z,5.65
2023-05-12T02:44:05.905Z,11.65
2023-05-12T02:47:08.344Z,11.70
2023-05-12T02:50:10.635Z,7.03
2023-05-12T02:56:17.200Z,7.07
2023-05-12T02:59:20.621Z,7.00
2023-05-12T03:02:22.985Z,10.82
2023-05-12T03:05:26.390Z,7.32
2023-05-12T03:08:29.350Z,8.63
2023-05-12T03:14:34.069Z,7.68
2023-05-12T03:17:36.630Z,9.98
2023-05-12T03:20:40.385Z,7.68
2023-05-12T03:23:44.953Z,8.65
2023-05-12T03:26:46.990Z,5.80
2023-05-12T03:29:49.504Z,9.20
2023-05-12T03:32:51.773Z,7.05
2023-05-12T03:35:54.334Z,7.95
2023-05-12T03:38:56.698Z,8.77
2023-05-12T03:41:58.691Z,8.18
2023-05-12T03:45:00.895Z,7.53
2023-05-12T03:48:02.972Z,7.97
2023-05-12T03:54:11.909Z,8.00
2023-05-12T03:57:14.030Z,7.85
2023-05-12T04:00:17.014Z,12.48
2023-05-12T04:03:19.749Z,13.00
2023-05-12T04:09:25.028Z,7.25
2023-05-12T04:12:28.175Z,7.50
2023-05-12T04:15:34.266Z,8.50
2023-05-12T04:18:37.698Z,7.25
2023-05-12T04:21:40.057Z,8.98
2023-05-12T04:27:45.990Z,11.73
2023-05-12T04:30:48.561Z,12.00
2023-05-12T04:33:52.456Z,6.57
2023-05-12T04:36:55.668Z,10.00
2023-05-12T04:40:01.655Z,8.13
2023-05-12T04:43:05.860Z,9.05
2023-05-12T04:46:09.794Z,5.18
2023-05-12T04:49:13.918Z,6.35
2023-05-12T04:52:16.918Z,8.95
2023-05-12T04:55:19.298Z,5.88
2023-05-12T04:58:23.896Z,9.63
2023-05-12T05:01:30.410Z,9.50
2023-05-12T05:04:32.724Z,5.60
2023-05-12T05:10:37.568Z,8.20
2023-05-12T05:13:39.673Z,8.00
2023-05-12T05:16:43.229Z,9.93
2023-05-12T05:19:57.279Z,7.35
2023-05-12T05:23:00.987Z,7.03
2023-05-12T05:26:03.183Z,9.15
2023-05-12T05:29:11.113Z,7.13
2023-05-12T05:32:17.184Z,10.93
2023-05-12T05:35:22.229Z,8.05
2023-05-12T05:38:29.434Z,6.88
2023-05-12T05:41:31.680Z,8.00
2023-05-12T05:44:34.251Z,8.75
2023-05-12T05:47:37.260Z,9.95
2023-05-12T05:50:39.959Z,6.82
2023-05-12T05:53:42.373Z,7.80
2023-05-12T05:56:45.734Z,9.70
2023-05-12T05:59:48.034Z,4.82
2023-05-12T06:02:54.022Z,5.80
2023-05-12T06:05:57.064Z,5.80
2023-05-12T06:08:59.846Z,6.18
2023-05-12T06:15:04.278Z,8.68
2023-05-12T06:18:06.385Z,7.63
2023-05-12T06:21:08.690Z,6.78
2023-05-12T06:24:10.721Z,5.95
2023-05-12T06:27:13.220Z,6.63
2023-05-12T06:33:18.838Z,5.57
2023-05-12T06:36:21.157Z,6.95
2023-05-12T06:39:23.408Z,4.00
2023-05-12T06:45:31.555Z,3.95
2023-05-12T06:48:34.826Z,3.28
2023-05-12T06:54:46.627Z,4.35
2023-05-12T06:57:48.702Z,3.15
2023-05-12T07:00:50.817Z,4.10
2023-05-12T07:03:52.918Z,4.90
2023-05-12T07:06:54.986Z,2.88
2023-05-12T07:09:57.015Z,2.17
2023-05-12T07:12:59.233Z,3.47
2023-05-12T07:16:01.349Z,3.58
2023-05-12T07:19:03.406Z,4.13
2023-05-12T07:22:05.615Z,2.53
2023-05-12T07:25:08.037Z,2.60
2023-05-12T07:28:10.134Z,2.55
2023-05-12T07:31:12.273Z,2.63
2023-05-12T07:34:16.941Z,4.32
2023-05-12T07:37:18.939Z,2.38
2023-05-12T07:40:20.982Z,4.95
2023-05-12T07:43:23.044Z,3.25
2023-05-12T07:46:25.115Z,3.50
2023-05-12T07:52:29.146Z,4.57
2023-05-12T07:55:31.347Z,4.30
2023-05-12T08:01:35.440Z,4.00
2023-05-12T08:04:39.669Z,6.68
2023-05-12T08:07:41.793Z,2.13
2023-05-12T08:10:44.459Z,3.45
2023-05-12T08:13:46.502Z,4.35
2023-05-12T08:16:49.032Z,5.05
2023-05-12T08:19:51.246Z,5.20
2023-05-12T08:25:55.726Z,2.90
2023-05-12T08:32:00.184Z,3.75
2023-05-12T08:38:04.258Z,2.85
2023-05-12T08:44:26.919Z,1.70
2023-05-12T08:47:30.403Z,1.50
2023-05-12T08:50:35.681Z,2.47
2023-05-12T08:53:42.312Z,3.10
2023-05-12T08:59:56.299Z,3.55
2023-05-12T09:02:59.880Z,3.95
2023-05-12T09:06:03.081Z,2.10
2023-05-12T09:09:05.150Z,2.50
2023-05-12T09:15:15.568Z,2.78
2023-05-12T09:18:24.074Z,2.03
2023-05-12T09:21:27.439Z,2.45
2023-05-12T09:24:39.622Z,2.58
2023-05-12T09:27:42.591Z,1.10
2023-05-12T09:30:44.797Z,3.80
2023-05-12T09:33:47.030Z,3.22
2023-05-12T09:37:03.872Z,2.92
2023-05-12T09:40:07.933Z,3.55
2023-05-12T09:43:12.542Z,3.65
2023-05-12T09:46:16.739Z,2.50
2023-05-12T09:49:23.688Z,3.45
2023-05-12T09:52:26.026Z,4.18
2023-05-12T09:55:28.235Z,2.58
2023-05-12T10:01:32.907Z,3.28
2023-05-12T10:04:57.643Z,2.92
2023-05-12T10:08:03.380Z,4.07
2023-05-12T10:11:06.450Z,2.63
2023-05-12T10:14:09.204Z,3.33
2023-05-12T10:17:11.857Z,3.25
2023-05-12T10:20:15.953Z,3.17
2023-05-12T10:23:19.694Z,2.00
2023-05-12T10:26:22.590Z,1.65
2023-05-12T10:29:25.565Z,2.30
2023-05-12T10:32:28.209Z,2.25
2023-05-12T10:35:34.292Z,2.38
2023-05-12T10:38:37.451Z,3.58
2023-05-12T10:41:39.547Z,2.60
2023-05-12T10:44:52.517Z,2.55
2023-05-12T10:48:05.864Z,2.20
2023-05-12T10:51:09.673Z,1.02
2023-05-12T11:04:39.797Z,2.80
2023-05-12T11:07:50.695Z,2.90
2023-05-12T11:10:53.836Z,2.15
2023-05-12T11:13:56.252Z,2.95
2023-05-12T11:16:58.296Z,2.08
2023-05-12T11:20:00.316Z,1.33
2023-05-12T11:23:02.370Z,2.33
2023-05-12T11:26:04.533Z,3.33
2023-05-12T11:32:11.898Z,4.35
2023-05-12T11:35:16.158Z,3.35
2023-05-12T11:38:19.466Z,2.28
2023-05-12T11:41:27.917Z,3.42
2023-05-12T11:44:30.824Z,3.22
2023-05-12T11:47:32.815Z,2.22
2023-05-12T11:50:37.150Z,1.48
2023-05-12T11:53:40.788Z,3.00
2023-05-12T11:56:48.980Z,3.25
2023-05-12T11:59:57.588Z,2.65
2023-05-12T12:03:08.162Z,2.75
2023-05-12T12:06:10.541Z,3.13
2023-05-12T12:09:12.470Z,2.53
2023-05-12T12:12:14.670Z,3.20
2023-05-12T12:15:16.818Z,2.35
2023-05-12T12:18:19.006Z,1.33
2023-05-12T12:21:22.425Z,2.88
2023-05-12T12:24:25.658Z,4.10
2023-05-12T12:27:27.862Z,2.85
2023-05-12T12:30:30.029Z,3.00
2023-05-12T12:36:34.025Z,1.77
2023-05-12T12:39:36.543Z,3.15
2023-05-12T12:42:39.449Z,2.90
2023-05-12T12:45:41.487Z,4.25
2023-05-12T12:48:43.477Z,2.28
2023-05-12T12:51:47.110Z,2.20
2023-05-12T12:54:53.437Z,2.92
2023-05-12T12:57:55.626Z,3.25
2023-05-12T13:03:59.770Z,1.92
2023-05-12T13:10:06.646Z,2.38
2023-05-12T13:13:08.751Z,3.05
2023-05-12T13:16:10.761Z,2.00
2023-05-12T13:19:12.760Z,2.33
2023-05-12T13:25:17.391Z,4.18
2023-05-12T13:28:19.418Z,1.33
2023-05-12T13:31:21.569Z,2.05
2023-05-12T13:34:23.623Z,3.03
2023-05-12T13:37:26.380Z,2.45
2023-05-12T13:40:28.428Z,3.03
2023-05-12T13:43:30.493Z,3.60
2023-05-12T13:46:32.662Z,7.65
2023-05-12T13:52:39.878Z,6.32
2023-05-12T13:55:42.118Z,2.05
2023-05-12T13:58:44.496Z,5.00
2023-05-12T14:01:46.865Z,3.40
2023-05-12T14:04:49.037Z,2.72
2023-05-12T14:10:52.907Z,2.63
2023-05-12T14:13:55.916Z,5.82
2023-05-12T14:16:57.993Z,3.40
2023-05-12T14:19:59.976Z,4.28
2023-05-12T14:23:05.442Z,3.55
2023-05-12T14:26:07.475Z,4.93
2023-05-12T14:29:09.509Z,3.33
2023-05-12T14:32:11.502Z,3.10
2023-05-12T14:35:15.917Z,3.03
2023-05-12T14:38:17.993Z,6.80
2023-05-12T14:41:20.214Z,3.22
2023-05-12T14:44:22.334Z,2.92
2023-05-12T14:47:24.450Z,3.33
2023-05-12T14:50:27.092Z,3.22
2023-05-12T14:53:31.767Z,3.00
2023-05-12T14:56:33.860Z,5.18
2023-05-12T14:59:35.869Z,4.32
2023-05-12T15:02:38.957Z,4.03
2023-05-12T15:06:01.672Z,3.72
2023-05-12T15:09:03.677Z,3.72
2023-05-12T15:12:05.999Z,3.78
2023-05-12T15:15:08.830Z,2.70
2023-05-12T15:18:10.944Z,6.47
2023-05-12T15:24:17.330Z,17.25
2023-05-12T15:27:19.373Z,5.00
2023-05-12T15:30:21.728Z,5.07
2023-05-12T15:33:24.887Z,2.80
2023-05-12T15:36:27.036Z,3.28
2023-05-12T15:42:33.327Z,2.30
2023-05-12T15:45:35.929Z,3.20
2023-05-12T15:48:38.069Z,2.72
2023-05-12T15:51:39.995Z,3.28
2023-05-12T15:54:42.240Z,2.10
2023-05-12T15:57:44.303Z,3.90
2023-05-12T16:00:46.316Z,5.18
2023-05-12T16:03:52.231Z,2.40
2023-05-12T16:06:54.538Z,2.42
2023-05-12T16:10:00.504Z,2.70
2023-05-12T16:13:02.674Z,3.70
2023-05-12T16:16:05.220Z,1.80
2023-05-12T16:19:07.267Z,3.50
2023-05-12T16:25:15.222Z,3.90
2023-05-12T16:31:19.319Z,2.70
2023-05-12T16:34:21.439Z,3.03
2023-05-12T16:40:25.764Z,1.67
2023-05-12T16:43:27.895Z,1.17
2023-05-12T16:49:35.482Z,1.15
2023-05-12T16:52:37.468Z,2.50
2023-05-12T16:55:39.684Z,1.65
2023-05-12T16:58:42.271Z,1.73
2023-05-12T17:01:44.380Z,1.05
2023-05-12T17:04:46.666Z,0.68
2023-05-12T17:07:48.841Z,2.97
2023-05-12T17:10:50.960Z,1.85
2023-05-12T17:13:55.525Z,2.38
2023-05-12T17:16:57.604Z,1.38
2023-05-12T17:19:59.655Z,0.88
2023-05-12T17:26:04.652Z,1.88
2023-05-12T17:29:06.942Z,1.55
2023-05-12T17:35:11.287Z,1.38
2023-05-12T17:38:14.319Z,1.50
2023-05-12T17:41:16.448Z,1.45
2023-05-12T17:44:18.458Z,1.02
2023-05-12T17:47:20.499Z,0.47
2023-05-12T17:50:22.634Z,1.33
2023-05-12T17:53:25.346Z,0.20
2023-05-12T17:59:29.303Z,1.05
2023-05-12T18:02:31.597Z,1.40
2023-05-12T18:08:38.977Z,0.52
2023-05-12T18:11:41.156Z,3.45
2023-05-12T18:14:43.299Z,0.63
2023-05-12T18:17:45.858Z,1.33
2023-05-12T18:20:47.973Z,1.23
2023-05-12T18:23:50.044Z,2.30
2023-05-12T18:26:52.170Z,0.25
2023-05-12T18:32:57.626Z,2.35
2023-05-12T18:35:59.631Z,0.30
2023-05-12T18:39:01.722Z,2.15
2023-05-12T18:42:03.893Z,0.82
2023-05-12T18:45:06.668Z,1.05
2023-05-12T18:48:08.751Z,0.95
2023-05-12T18:51:10.907Z,1.20
2023-05-12T18:54:12.833Z,0.95
2023-05-12T18:57:14.906Z,1.13
2023-05-12T19:00:17.245Z,1.20
2023-05-12T19:03:19.289Z,0.55
2023-05-12T19:06:21.273Z,0.43
2023-05-12T19:09:23.316Z,1.05
2023-05-12T19:12:25.829Z,0.70
2023-05-12T19:15:28.416Z,0.43
2023-05-12T19:18:30.484Z,0.35
2023-05-12T19:21:33.414Z,0.85
2023-05-12T19:24:35.370Z,1.33
2023-05-12T19:27:37.517Z,0.65
2023-05-12T19:30:39.584Z,1.10
2023-05-12T19:33:42.581Z,1.10
2023-05-12T19:36:44.645Z,1.27
2023-05-12T19:39:47.222Z,0.65
2023-05-12T19:42:49.386Z,1.00
2023-05-12T19:45:51.568Z,1.52
2023-05-12T19:51:55.768Z,0.75
2023-05-12T19:54:58.023Z,0.93
2023-05-12T19:58:00.224Z,0.63
2023-05-12T20:04:06.841Z,0.63
2023-05-12T20:07:09.051Z,1.58
2023-05-12T20:10:11.490Z,1.60
2023-05-12T20:13:13.482Z,1.52
2023-05-12T20:16:15.568Z,0.73
2023-05-12T20:19:18.040Z,2.13
2023-05-12T20:22:20.112Z,0.57
2023-05-12T20:25:22.337Z,1.55
2023-05-12T20:28:24.624Z,1.00
2023-05-12T20:31:27.391Z,0.82
2023-05-12T20:34:29.434Z,1.13
2023-05-12T20:37:31.571Z,1.60
2023-05-12T20:40:33.480Z,2.08
2023-05-12T20:43:37.830Z,1.20
2023-05-12T20:46:40.085Z,1.60
2023-05-12T20:52:44.584Z,0.73
2023-05-12T20:55:46.639Z,1.35
2023-05-12T20:58:49.843Z,0.50
2023-05-12T21:01:52.050Z,1.70
2023-05-12T21:07:56.687Z,4.40
2023-05-12T21:10:58.832Z,1.00
2023-05-12T21:14:01.195Z,1.90
2023-05-12T21:20:11.399Z,0.82
2023-05-12T21:23:13.442Z,1.20
2023-05-12T21:26:15.752Z,1.27
2023-05-12T21:32:20.068Z,1.77
2023-05-12T21:35:24.670Z,1.23
2023-05-12T21:38:27.489Z,1.58
2023-05-12T21:41:29.587Z,2.78
2023-05-12T21:44:32.121Z,1.73
2023-05-12T21:47:34.598Z,1.30
2023-05-12T21:50:36.937Z,0.80
2023-05-12T21:53:39.109Z,0.88
2023-05-12T21:56:41.150Z,1.08
2023-05-12T21:59:43.643Z,1.02
2023-05-12T22:02:46.612Z,2.17
2023-05-12T22:05:49.014Z,1.88
2023-05-12T22:08:51.137Z,2.00
2023-05-12T22:11:53.232Z,1.35
2023-05-12T22:14:55.668Z,1.95
2023-05-12T22:17:57.828Z,3.78
2023-05-12T22:20:59.878Z,0.98
2023-05-12T22:24:01.963Z,1.17
2023-05-12T22:27:04.140Z,2.13
2023-05-12T22:30:09.063Z,3.05
2023-05-12T22:33:11.267Z,0.82
2023-05-12T22:36:13.310Z,1.65
2023-05-12T22:39:15.409Z,2.03
2023-05-12T22:42:17.910Z,1.67
2023-05-12T22:45:20.191Z,1.10
2023-05-12T22:48:22.824Z,1.52
2023-05-12T22:51:24.870Z,1.67
2023-05-12T22:54:27.429Z,1.50
2023-05-12T22:57:29.416Z,1.90
2023-05-12T23:00:31.733Z,3.33
2023-05-12T23:06:36.375Z,1.75
2023-05-12T23:09:38.794Z,1.52
2023-05-12T23:12:41.022Z,3.00
2023-05-12T23:15:45.588Z,1.70
2023-05-12T23:18:47.768Z,1.55
2023-05-12T23:21:49.963Z,1.73
2023-05-12T23:24:52.711Z,1.27
2023-05-12T23:27:54.936Z,1.45
2023-05-12T23:30:57.061Z,2.60
2023-05-12T23:33:59.137Z,0.82
2023-05-12T23:37:01.196Z,1.40
2023-05-12T23:40:03.475Z,1.85
2023-05-12T23:43:08.448Z,2.30
2023-05-12T23:46:10.661Z,1.50
2023-05-12T23:52:14.871Z,0.75
2023-05-12T23:55:17.201Z,2.15
2023-05-12T23:58:19.424Z,2.20
